Jefferson, WV

1:49 PM EDT on July 06, 2015 (GMT -0400)
Near Lakewood Elementary School | | Change Station
CLOSE
Current Station
Personal Weather Station
Location: SAINT ALBANS, WV
Elevation: 604 ft
Nearby Weather Stations

Elev 604 ft 38.37 °N, 81.83 °W | Updated 1 minute ago

Mostly Cloudy
Mostly Cloudy
81.1 °F
Feels Like 84 °F
N
1.0
Wind Variable Wind from SW
Gusts 7.0 mph

Today
High -- | Low -- °F
--% Chance of Precip.
Yesterday
High -- | Low -- °F
Precip. -- in
6:09 AM 8:54 PM
Waning Gibbous, 73% visible
Pressure 30.08 in
Visibility 5.0 miles
Clouds Mostly Cloudy 1500 ft
Mostly Cloudy 3300 ft
Mostly Cloudy 5500 ft
Heat Index 84 °F
Dew Point 69 °F
Humidity 66%
Rainfall 0.00 in
Snow Depth Not available.
UV 6 out of 12
Pollen .50 out of 12
Air Quality Not available.
Flu Activity Not available.
METAR KCRW 061654Z 22008KT 5SM HZ BKN015TCU BKN033 BKN055 24/20 A3010 RMK AO2 RAB17E39 SLP184 BKN015 V SCT TCU ALQDS VCSH P0000 T02390200

More Conditions Fewer Conditions

Pressure 30.08 in
Visibility 5.0 miles
Clouds Mostly Cloudy 1500 ft
Mostly Cloudy 3300 ft
Mostly Cloudy 5500 ft
Heat Index 84 °F
Dew Point 69 °F
Humidity 66%
Rainfall 0.00 in
Snow Depth Not available.
UV 6 out of 12
Pollen .50 out of 12
Air Quality Not available.
Flu Activity Not available.
METAR KCRW 061654Z 22008KT 5SM HZ BKN015TCU BKN033 BKN055 24/20 A3010 RMK AO2 RAB17E39 SLP184 BKN015 V SCT TCU ALQDS VCSH P0000 T02390200

More Conditions Fewer Conditions

10-Day Weather Forecast

×

Almanac

Astronomy

Jul. 06, 2015 Rise Set
Actual Time
Civil Twilight
Nautical Twilight
Astronomical Twilight
Moon
Length of Visible Light
Length of Day
Tomorrow will be .
, % of the Moon is Illuminated

Today's Extremes

State Highs State Lows

Community

WunderPhotos

Upload Photos

1,835,607 photos uploaded!

WunderBlogs® & News

Nearby

Air Quality

  Air Quality AQ Index Pollutant
Not available.

Snow Depth

Station Depth Elevation

Earthquake Activity

City Distance Mag. Time & Date
Minimum magnitude displayed is 2.5.

Coastal Water Temperatures

Place Temperature

Stations

Nearby Weather Stations

Station Location Temp. Windchill Dew Point Humidity Wind Precip. Elev Updated Type